sensor_id;sensor_type;location;lat;lon;timestamp;P1;durP1;ratioP1;P2;durP2;ratioP2
42478;SDS011;28110;47.080;9.476;2024-03-22T00:01:55;3.88;;;1.63;;
42478;SDS011;28110;47.080;9.476;2024-03-22T00:04:21;5.32;;;1.50;;
42478;SDS011;28110;47.080;9.476;2024-03-22T00:06:48;2.97;;;1.80;;
42478;SDS011;28110;47.080;9.476;2024-03-22T00:09:15;3.40;;;1.75;;
42478;SDS011;28110;47.080;9.476;2024-03-22T00:11:42;4.63;;;2.30;;
42478;SDS011;28110;47.080;9.476;2024-03-22T00:14:09;3.90;;;2.00;;
42478;SDS011;28110;47.080;9.476;2024-03-22T00:16:35;5.07;;;2.00;;
42478;SDS011;28110;47.080;9.476;2024-03-22T00:19:01;5.25;;;2.05;;
42478;SDS011;28110;47.080;9.476;2024-03-22T00:21:27;5.73;;;2.33;;
42478;SDS011;28110;47.080;9.476;2024-03-22T00:23:53;5.47;;;2.08;;
42478;SDS011;28110;47.080;9.476;2024-03-22T00:26:18;4.03;;;1.80;;
42478;SDS011;28110;47.080;9.476;2024-03-22T00:28:44;3.47;;;2.10;;
42478;SDS011;28110;47.080;9.476;2024-03-22T00:31:09;3.57;;;1.90;;
42478;SDS011;28110;47.080;9.476;2024-03-22T00:33:35;3.40;;;1.73;;
42478;SDS011;28110;47.080;9.476;2024-03-22T00:36:01;3.50;;;1.98;;
42478;SDS011;28110;47.080;9.476;2024-03-22T00:38:26;5.10;;;1.80;;
42478;SDS011;28110;47.080;9.476;2024-03-22T00:40:52;5.40;;;2.83;;
42478;SDS011;28110;47.080;9.476;2024-03-22T00:43:19;7.37;;;2.40;;
42478;SDS011;28110;47.080;9.476;2024-03-22T00:45:45;6.10;;;2.30;;
42478;SDS011;28110;47.080;9.476;2024-03-22T00:48:11;5.43;;;2.20;;
42478;SDS011;28110;47.080;9.476;2024-03-22T00:50:36;3.93;;;2.00;;
42478;SDS011;28110;47.080;9.476;2024-03-22T00:53:02;3.90;;;1.97;;
42478;SDS011;28110;47.080;9.476;2024-03-22T00:55:28;3.17;;;1.50;;
42478;SDS011;28110;47.080;9.476;2024-03-22T00:57:54;2.90;;;1.83;;
42478;SDS011;28110;47.080;9.476;2024-03-22T01:00:20;4.93;;;2.08;;
42478;SDS011;28110;47.080;9.476;2024-03-22T01:02:45;7.00;;;2.15;;
42478;SDS011;28110;47.080;9.476;2024-03-22T01:05:11;3.58;;;1.80;;
42478;SDS011;28110;47.080;9.476;2024-03-22T01:07:37;5.00;;;1.90;;
42478;SDS011;28110;47.080;9.476;2024-03-22T01:10:03;4.40;;;1.75;;
42478;SDS011;28110;47.080;9.476;2024-03-22T01:12:29;4.18;;;1.80;;
42478;SDS011;28110;47.080;9.476;2024-03-22T01:14:56;4.20;;;1.50;;
42478;SDS011;28110;47.080;9.476;2024-03-22T01:17:21;2.72;;;1.77;;
42478;SDS011;28110;47.080;9.476;2024-03-22T01:19:47;5.80;;;1.80;;
42478;SDS011;28110;47.080;9.476;2024-03-22T01:22:13;4.10;;;1.70;;
42478;SDS011;28110;47.080;9.476;2024-03-22T01:24:39;4.07;;;1.60;;
42478;SDS011;28110;47.080;9.476;2024-03-22T01:27:04;3.20;;;1.60;;
42478;SDS011;28110;47.080;9.476;2024-03-22T01:29:30;3.17;;;1.80;;
42478;SDS011;28110;47.080;9.476;2024-03-22T01:31:57;3.85;;;1.80;;
42478;SDS011;28110;47.080;9.476;2024-03-22T01:34:23;4.95;;;1.80;;
42478;SDS011;28110;47.080;9.476;2024-03-22T01:36:50;3.92;;;1.60;;
42478;SDS011;28110;47.080;9.476;2024-03-22T01:39:16;4.40;;;2.15;;
42478;SDS011;28110;47.080;9.476;2024-03-22T01:41:43;4.78;;;1.70;;
42478;SDS011;28110;47.080;9.476;2024-03-22T01:44:08;4.95;;;1.67;;
42478;SDS011;28110;47.080;9.476;2024-03-22T01:46:34;3.00;;;1.50;;
42478;SDS011;28110;47.080;9.476;2024-03-22T01:49:00;3.97;;;1.75;;
42478;SDS011;28110;47.080;9.476;2024-03-22T01:51:26;8.80;;;2.00;;
42478;SDS011;28110;47.080;9.476;2024-03-22T01:53:52;4.57;;;1.85;;
42478;SDS011;28110;47.080;9.476;2024-03-22T01:56:19;3.17;;;1.75;;
42478;SDS011;28110;47.080;9.476;2024-03-22T01:58:45;4.82;;;2.10;;
42478;SDS011;28110;47.080;9.476;2024-03-22T02:01:11;5.63;;;2.53;;
42478;SDS011;28110;47.080;9.476;2024-03-22T02:03:37;5.15;;;2.38;;
42478;SDS011;28110;47.080;9.476;2024-03-22T02:06:02;5.63;;;2.10;;
42478;SDS011;28110;47.080;9.476;2024-03-22T02:08:28;3.37;;;1.80;;
42478;SDS011;28110;47.080;9.476;2024-03-22T02:10:54;3.88;;;1.73;;
42478;SDS011;28110;47.080;9.476;2024-03-22T02:13:19;9.13;;;1.60;;
42478;SDS011;28110;47.080;9.476;2024-03-22T02:15:45;5.20;;;1.60;;
42478;SDS011;28110;47.080;9.476;2024-03-22T02:18:10;4.28;;;1.65;;
42478;SDS011;28110;47.080;9.476;2024-03-22T02:20:36;2.57;;;1.47;;
42478;SDS011;28110;47.080;9.476;2024-03-22T02:23:01;7.22;;;1.95;;
42478;SDS011;28110;47.080;9.476;2024-03-22T02:25:27;2.42;;;1.70;;
42478;SDS011;28110;47.080;9.476;2024-03-22T02:27:52;6.53;;;1.63;;
42478;SDS011;28110;47.080;9.476;2024-03-22T02:30:18;4.88;;;2.22;;
42478;SDS011;28110;47.080;9.476;2024-03-22T02:32:44;2.65;;;1.58;;
42478;SDS011;28110;47.080;9.476;2024-03-22T02:35:09;2.97;;;1.63;;
42478;SDS011;28110;47.080;9.476;2024-03-22T02:37:35;2.80;;;1.35;;
42478;SDS011;28110;47.080;9.476;2024-03-22T02:40:01;2.00;;;1.23;;
42478;SDS011;28110;47.080;9.476;2024-03-22T02:42:26;2.27;;;1.47;;
42478;SDS011;28110;47.080;9.476;2024-03-22T02:44:52;3.20;;;1.80;;
42478;SDS011;28110;47.080;9.476;2024-03-22T02:47:17;4.13;;;1.60;;
42478;SDS011;28110;47.080;9.476;2024-03-22T02:49:43;3.58;;;1.60;;
42478;SDS011;28110;47.080;9.476;2024-03-22T02:52:09;3.42;;;1.77;;
42478;SDS011;28110;47.080;9.476;2024-03-22T02:54:34;5.37;;;2.03;;
42478;SDS011;28110;47.080;9.476;2024-03-22T02:57:00;4.10;;;2.13;;
42478;SDS011;28110;47.080;9.476;2024-03-22T02:59:26;3.57;;;1.70;;
42478;SDS011;28110;47.080;9.476;2024-03-22T03:01:52;2.88;;;1.65;;
42478;SDS011;28110;47.080;9.476;2024-03-22T03:04:18;3.63;;;1.88;;
42478;SDS011;28110;47.080;9.476;2024-03-22T03:06:44;5.85;;;1.77;;
42478;SDS011;28110;47.080;9.476;2024-03-22T03:09:12;3.08;;;1.50;;
42478;SDS011;28110;47.080;9.476;2024-03-22T03:11:38;5.87;;;1.87;;
42478;SDS011;28110;47.080;9.476;2024-03-22T03:14:04;3.47;;;1.83;;
42478;SDS011;28110;47.080;9.476;2024-03-22T03:16:30;7.13;;;1.58;;
42478;SDS011;28110;47.080;9.476;2024-03-22T03:18:55;2.17;;;1.50;;
42478;SDS011;28110;47.080;9.476;2024-03-22T03:21:21;3.53;;;1.40;;
42478;SDS011;28110;47.080;9.476;2024-03-22T03:23:46;5.10;;;1.70;;
42478;SDS011;28110;47.080;9.476;2024-03-22T03:26:12;3.33;;;1.30;;
42478;SDS011;28110;47.080;9.476;2024-03-22T03:28:38;5.22;;;1.75;;
42478;SDS011;28110;47.080;9.476;2024-03-22T03:31:03;3.33;;;1.43;;
42478;SDS011;28110;47.080;9.476;2024-03-22T03:33:29;2.23;;;1.20;;
42478;SDS011;28110;47.080;9.476;2024-03-22T03:35:55;2.63;;;1.40;;
42478;SDS011;28110;47.080;9.476;2024-03-22T03:38:20;2.87;;;1.50;;
42478;SDS011;28110;47.080;9.476;2024-03-22T03:40:46;4.95;;;1.50;;
42478;SDS011;28110;47.080;9.476;2024-03-22T03:43:12;3.63;;;1.17;;
42478;SDS011;28110;47.080;9.476;2024-03-22T03:45:37;4.18;;;1.70;;
42478;SDS011;28110;47.080;9.476;2024-03-22T03:48:03;3.13;;;1.73;;
42478;SDS011;28110;47.080;9.476;2024-03-22T03:50:29;3.65;;;1.50;;
42478;SDS011;28110;47.080;9.476;2024-03-22T03:52:54;3.90;;;1.30;;
42478;SDS011;28110;47.080;9.476;2024-03-22T03:55:21;4.33;;;1.40;;
42478;SDS011;28110;47.080;9.476;2024-03-22T03:57:47;1.92;;;1.10;;
42478;SDS011;28110;47.080;9.476;2024-03-22T04:00:15;4.85;;;1.25;;
42478;SDS011;28110;47.080;9.476;2024-03-22T04:02:41;2.13;;;1.30;;
42478;SDS011;28110;47.080;9.476;2024-03-22T04:05:06;3.40;;;1.52;;
42478;SDS011;28110;47.080;9.476;2024-03-22T04:07:32;3.90;;;1.37;;
42478;SDS011;28110;47.080;9.476;2024-03-22T04:09:58;3.75;;;1.50;;
42478;SDS011;28110;47.080;9.476;2024-03-22T04:12:25;4.93;;;1.40;;
42478;SDS011;28110;47.080;9.476;2024-03-22T04:14:51;3.05;;;1.50;;
42478;SDS011;28110;47.080;9.476;2024-03-22T04:17:17;2.28;;;1.40;;
42478;SDS011;28110;47.080;9.476;2024-03-22T04:19:43;4.20;;;1.40;;
42478;SDS011;28110;47.080;9.476;2024-03-22T04:22:08;2.92;;;1.33;;
42478;SDS011;28110;47.080;9.476;2024-03-22T04:24:34;1.77;;;1.10;;
42478;SDS011;28110;47.080;9.476;2024-03-22T04:26:59;3.20;;;1.40;;
42478;SDS011;28110;47.080;9.476;2024-03-22T04:29:25;2.50;;;1.10;;
42478;SDS011;28110;47.080;9.476;2024-03-22T04:31:50;5.32;;;1.58;;
42478;SDS011;28110;47.080;9.476;2024-03-22T04:34:16;3.60;;;1.33;;
42478;SDS011;28110;47.080;9.476;2024-03-22T04:36:41;5.43;;;1.40;;
42478;SDS011;28110;47.080;9.476;2024-03-22T04:39:07;2.08;;;1.08;;
42478;SDS011;28110;47.080;9.476;2024-03-22T04:41:34;3.38;;;1.40;;
42478;SDS011;28110;47.080;9.476;2024-03-22T04:44:00;2.90;;;1.23;;
42478;SDS011;28110;47.080;9.476;2024-03-22T04:46:25;2.43;;;1.33;;
42478;SDS011;28110;47.080;9.476;2024-03-22T04:48:51;2.38;;;1.50;;
42478;SDS011;28110;47.080;9.476;2024-03-22T04:51:16;3.60;;;1.33;;
42478;SDS011;28110;47.080;9.476;2024-03-22T04:53:42;1.93;;;1.30;;
42478;SDS011;28110;47.080;9.476;2024-03-22T04:56:09;2.78;;;1.38;;
42478;SDS011;28110;47.080;9.476;2024-03-22T04:58:34;4.00;;;1.43;;
42478;SDS011;28110;47.080;9.476;2024-03-22T05:01:00;5.32;;;1.42;;
42478;SDS011;28110;47.080;9.476;2024-03-22T05:03:26;3.33;;;1.00;;
42478;SDS011;28110;47.080;9.476;2024-03-22T05:05:51;2.92;;;1.40;;
42478;SDS011;28110;47.080;9.476;2024-03-22T05:08:17;3.37;;;1.10;;
42478;SDS011;28110;47.080;9.476;2024-03-22T05:10:42;2.93;;;1.30;;
42478;SDS011;28110;47.080;9.476;2024-03-22T05:13:08;3.45;;;1.20;;
42478;SDS011;28110;47.080;9.476;2024-03-22T05:15:34;4.03;;;1.30;;
42478;SDS011;28110;47.080;9.476;2024-03-22T05:17:59;1.92;;;1.20;;
42478;SDS011;28110;47.080;9.476;2024-03-22T05:20:25;2.67;;;1.50;;
42478;SDS011;28110;47.080;9.476;2024-03-22T05:22:51;2.88;;;1.52;;
42478;SDS011;28110;47.080;9.476;2024-03-22T05:25:17;3.72;;;1.50;;
42478;SDS011;28110;47.080;9.476;2024-03-22T05:27:43;3.63;;;1.57;;
42478;SDS011;28110;47.080;9.476;2024-03-22T05:30:10;2.75;;;1.17;;
42478;SDS011;28110;47.080;9.476;2024-03-22T05:32:36;2.20;;;1.40;;
42478;SDS011;28110;47.080;9.476;2024-03-22T05:35:02;3.55;;;1.45;;
42478;SDS011;28110;47.080;9.476;2024-03-22T05:37:28;5.77;;;1.30;;
42478;SDS011;28110;47.080;9.476;2024-03-22T05:39:54;5.47;;;1.60;;
42478;SDS011;28110;47.080;9.476;2024-03-22T05:42:19;3.20;;;1.30;;
42478;SDS011;28110;47.080;9.476;2024-03-22T05:44:45;3.45;;;1.30;;
42478;SDS011;28110;47.080;9.476;2024-03-22T05:47:11;3.70;;;1.20;;
42478;SDS011;28110;47.080;9.476;2024-03-22T05:49:36;3.77;;;1.10;;
42478;SDS011;28110;47.080;9.476;2024-03-22T05:52:02;5.07;;;1.33;;
42478;SDS011;28110;47.080;9.476;2024-03-22T05:54:28;2.03;;;1.17;;
42478;SDS011;28110;47.080;9.476;2024-03-22T05:56:53;3.63;;;1.20;;
42478;SDS011;28110;47.080;9.476;2024-03-22T05:59:19;2.70;;;1.45;;
42478;SDS011;28110;47.080;9.476;2024-03-22T06:01:45;3.65;;;1.40;;
42478;SDS011;28110;47.080;9.476;2024-03-22T06:04:10;3.37;;;1.40;;
42478;SDS011;28110;47.080;9.476;2024-03-22T06:06:36;3.77;;;1.13;;
42478;SDS011;28110;47.080;9.476;2024-03-22T06:09:03;3.00;;;1.35;;
42478;SDS011;28110;47.080;9.476;2024-03-22T06:11:31;2.58;;;1.23;;
42478;SDS011;28110;47.080;9.476;2024-03-22T06:13:57;5.65;;;1.55;;
42478;SDS011;28110;47.080;9.476;2024-03-22T06:16:22;3.33;;;1.23;;
42478;SDS011;28110;47.080;9.476;2024-03-22T06:18:48;3.97;;;1.40;;
42478;SDS011;28110;47.080;9.476;2024-03-22T06:21:14;2.55;;;1.30;;
42478;SDS011;28110;47.080;9.476;2024-03-22T06:23:39;2.07;;;1.30;;
42478;SDS011;28110;47.080;9.476;2024-03-22T06:26:06;2.63;;;1.20;;
42478;SDS011;28110;47.080;9.476;2024-03-22T06:28:32;1.77;;;1.20;;
42478;SDS011;28110;47.080;9.476;2024-03-22T06:30:57;4.47;;;1.20;;
42478;SDS011;28110;47.080;9.476;2024-03-22T06:33:23;4.00;;;1.10;;
42478;SDS011;28110;47.080;9.476;2024-03-22T06:35:48;3.47;;;1.25;;
42478;SDS011;28110;47.080;9.476;2024-03-22T06:38:14;4.67;;;1.47;;
42478;SDS011;28110;47.080;9.476;2024-03-22T06:40:40;3.43;;;1.20;;
42478;SDS011;28110;47.080;9.476;2024-03-22T06:43:06;2.55;;;1.20;;
42478;SDS011;28110;47.080;9.476;2024-03-22T06:45:31;3.47;;;1.20;;
42478;SDS011;28110;47.080;9.476;2024-03-22T06:47:57;1.85;;;1.17;;
42478;SDS011;28110;47.080;9.476;2024-03-22T06:50:22;1.83;;;1.20;;
42478;SDS011;28110;47.080;9.476;2024-03-22T06:52:52;2.22;;;1.08;;
42478;SDS011;28110;47.080;9.476;2024-03-22T06:55:21;1.70;;;0.88;;
42478;SDS011;28110;47.080;9.476;2024-03-22T06:57:47;2.20;;;1.20;;
42478;SDS011;28110;47.080;9.476;2024-03-22T07:00:14;4.72;;;1.40;;
42478;SDS011;28110;47.080;9.476;2024-03-22T07:02:40;2.90;;;1.20;;
42478;SDS011;28110;47.080;9.476;2024-03-22T07:05:09;2.83;;;1.15;;
42478;SDS011;28110;47.080;9.476;2024-03-22T07:07:35;2.80;;;1.10;;
42478;SDS011;28110;47.080;9.476;2024-03-22T07:10:01;2.20;;;1.43;;
42478;SDS011;28110;47.080;9.476;2024-03-22T07:12:27;2.28;;;1.50;;
42478;SDS011;28110;47.080;9.476;2024-03-22T07:14:53;14.60;;;1.83;;
42478;SDS011;28110;47.080;9.476;2024-03-22T07:17:20;4.63;;;1.40;;
42478;SDS011;28110;47.080;9.476;2024-03-22T07:19:49;5.35;;;1.70;;
42478;SDS011;28110;47.080;9.476;2024-03-22T07:22:16;2.72;;;1.13;;
42478;SDS011;28110;47.080;9.476;2024-03-22T07:24:42;3.27;;;1.03;;
42478;SDS011;28110;47.080;9.476;2024-03-22T07:27:07;3.85;;;2.00;;
42478;SDS011;28110;47.080;9.476;2024-03-22T07:29:33;3.37;;;1.73;;
42478;SDS011;28110;47.080;9.476;2024-03-22T07:31:58;3.78;;;1.55;;
42478;SDS011;28110;47.080;9.476;2024-03-22T07:34:24;2.33;;;1.30;;
42478;SDS011;28110;47.080;9.476;2024-03-22T07:36:49;3.43;;;1.47;;
42478;SDS011;28110;47.080;9.476;2024-03-22T07:39:15;1.87;;;1.20;;
42478;SDS011;28110;47.080;9.476;2024-03-22T07:41:40;4.10;;;1.23;;
42478;SDS011;28110;47.080;9.476;2024-03-22T07:44:06;1.90;;;1.10;;
42478;SDS011;28110;47.080;9.476;2024-03-22T07:46:32;1.55;;;1.00;;
42478;SDS011;28110;47.080;9.476;2024-03-22T07:48:58;1.90;;;1.30;;
42478;SDS011;28110;47.080;9.476;2024-03-22T07:51:24;1.58;;;1.13;;
42478;SDS011;28110;47.080;9.476;2024-03-22T07:53:50;2.45;;;1.30;;
42478;SDS011;28110;47.080;9.476;2024-03-22T07:56:17;3.43;;;1.07;;
42478;SDS011;28110;47.080;9.476;2024-03-22T07:58:42;3.10;;;1.08;;
42478;SDS011;28110;47.080;9.476;2024-03-22T08:01:08;2.90;;;1.27;;
42478;SDS011;28110;47.080;9.476;2024-03-22T08:03:34;1.63;;;1.00;;
42478;SDS011;28110;47.080;9.476;2024-03-22T08:05:59;3.67;;;1.13;;
42478;SDS011;28110;47.080;9.476;2024-03-22T08:08:25;2.70;;;1.33;;
42478;SDS011;28110;47.080;9.476;2024-03-22T08:10:50;1.88;;;0.82;;
42478;SDS011;28110;47.080;9.476;2024-03-22T08:13:16;3.50;;;1.17;;
42478;SDS011;28110;47.080;9.476;2024-03-22T08:15:41;1.50;;;1.20;;
42478;SDS011;28110;47.080;9.476;2024-03-22T08:18:08;5.90;;;1.13;;
42478;SDS011;28110;47.080;9.476;2024-03-22T08:20:34;3.65;;;1.58;;
42478;SDS011;28110;47.080;9.476;2024-03-22T08:23:00;5.17;;;1.27;;
42478;SDS011;28110;47.080;9.476;2024-03-22T08:25:25;1.65;;;1.02;;
42478;SDS011;28110;47.080;9.476;2024-03-22T08:27:51;1.43;;;0.87;;
42478;SDS011;28110;47.080;9.476;2024-03-22T08:30:20;1.70;;;0.95;;
42478;SDS011;28110;47.080;9.476;2024-03-22T08:32:46;5.07;;;1.10;;
42478;SDS011;28110;47.080;9.476;2024-03-22T08:35:11;2.05;;;1.10;;
42478;SDS011;28110;47.080;9.476;2024-03-22T08:37:37;5.63;;;1.40;;
42478;SDS011;28110;47.080;9.476;2024-03-22T08:40:02;3.23;;;1.20;;
42478;SDS011;28110;47.080;9.476;2024-03-22T08:42:29;1.48;;;0.98;;
42478;SDS011;28110;47.080;9.476;2024-03-22T08:44:55;2.05;;;1.30;;
42478;SDS011;28110;47.080;9.476;2024-03-22T08:47:20;2.67;;;1.40;;
42478;SDS011;28110;47.080;9.476;2024-03-22T08:49:46;1.93;;;1.00;;
42478;SDS011;28110;47.080;9.476;2024-03-22T08:52:11;3.92;;;1.30;;
42478;SDS011;28110;47.080;9.476;2024-03-22T08:54:37;4.10;;;1.27;;
42478;SDS011;28110;47.080;9.476;2024-03-22T08:57:02;2.73;;;1.10;;
42478;SDS011;28110;47.080;9.476;2024-03-22T08:59:28;4.20;;;1.60;;
42478;SDS011;28110;47.080;9.476;2024-03-22T09:01:53;3.57;;;1.20;;
42478;SDS011;28110;47.080;9.476;2024-03-22T09:04:19;3.60;;;1.80;;
42478;SDS011;28110;47.080;9.476;2024-03-22T09:06:45;5.00;;;1.55;;
42478;SDS011;28110;47.080;9.476;2024-03-22T09:09:10;4.27;;;1.30;;
42478;SDS011;28110;47.080;9.476;2024-03-22T09:11:36;3.30;;;1.40;;
42478;SDS011;28110;47.080;9.476;2024-03-22T09:14:02;2.30;;;0.90;;
42478;SDS011;28110;47.080;9.476;2024-03-22T09:16:27;5.85;;;1.55;;
42478;SDS011;28110;47.080;9.476;2024-03-22T09:18:54;2.17;;;1.20;;
42478;SDS011;28110;47.080;9.476;2024-03-22T09:21:20;1.65;;;1.05;;
42478;SDS011;28110;47.080;9.476;2024-03-22T09:23:45;8.83;;;2.20;;
42478;SDS011;28110;47.080;9.476;2024-03-22T09:26:11;5.65;;;1.48;;
42478;SDS011;28110;47.080;9.476;2024-03-22T09:28:37;1.90;;;1.00;;
42478;SDS011;28110;47.080;9.476;2024-03-22T09:31:03;1.77;;;1.00;;
42478;SDS011;28110;47.080;9.476;2024-03-22T09:33:30;2.53;;;1.27;;
42478;SDS011;28110;47.080;9.476;2024-03-22T09:35:57;1.92;;;1.10;;
42478;SDS011;28110;47.080;9.476;2024-03-22T09:38:23;2.45;;;1.10;;
42478;SDS011;28110;47.080;9.476;2024-03-22T09:40:48;2.07;;;1.10;;
42478;SDS011;28110;47.080;9.476;2024-03-22T09:43:19;3.20;;;1.15;;
42478;SDS011;28110;47.080;9.476;2024-03-22T09:45:45;2.03;;;1.20;;
42478;SDS011;28110;47.080;9.476;2024-03-22T09:48:11;2.17;;;1.40;;
42478;SDS011;28110;47.080;9.476;2024-03-22T09:50:38;1.52;;;1.00;;
42478;SDS011;28110;47.080;9.476;2024-03-22T09:53:04;2.03;;;1.10;;
42478;SDS011;28110;47.080;9.476;2024-03-22T09:55:31;2.75;;;1.20;;
42478;SDS011;28110;47.080;9.476;2024-03-22T09:57:57;3.42;;;1.05;;
42478;SDS011;28110;47.080;9.476;2024-03-22T10:00:23;2.17;;;0.93;;
42478;SDS011;28110;47.080;9.476;2024-03-22T10:02:51;4.60;;;1.20;;
42478;SDS011;28110;47.080;9.476;2024-03-22T10:05:16;1.73;;;1.17;;
42478;SDS011;28110;47.080;9.476;2024-03-22T10:07:45;3.15;;;1.10;;
42478;SDS011;28110;47.080;9.476;2024-03-22T10:10:11;4.00;;;1.00;;
42478;SDS011;28110;47.080;9.476;2024-03-22T10:12:39;2.35;;;1.10;;
42478;SDS011;28110;47.080;9.476;2024-03-22T10:15:05;3.65;;;1.00;;
42478;SDS011;28110;47.080;9.476;2024-03-22T10:17:34;4.25;;;1.20;;
42478;SDS011;28110;47.080;9.476;2024-03-22T10:20:00;3.20;;;1.20;;
42478;SDS011;28110;47.080;9.476;2024-03-22T10:22:25;2.53;;;1.20;;
42478;SDS011;28110;47.080;9.476;2024-03-22T10:24:51;3.00;;;0.90;;
42478;SDS011;28110;47.080;9.476;2024-03-22T10:27:18;1.50;;;1.00;;
42478;SDS011;28110;47.080;9.476;2024-03-22T10:29:44;3.25;;;1.15;;
42478;SDS011;28110;47.080;9.476;2024-03-22T10:32:10;4.75;;;1.20;;
42478;SDS011;28110;47.080;9.476;2024-03-22T10:34:37;7.25;;;1.50;;
42478;SDS011;28110;47.080;9.476;2024-03-22T10:37:04;4.43;;;1.30;;
42478;SDS011;28110;47.080;9.476;2024-03-22T10:39:32;2.45;;;1.10;;
42478;SDS011;28110;47.080;9.476;2024-03-22T10:41:58;3.72;;;1.08;;
42478;SDS011;28110;47.080;9.476;2024-03-22T10:44:24;7.83;;;1.20;;
42478;SDS011;28110;47.080;9.476;2024-03-22T10:46:49;1.10;;;0.90;;
42478;SDS011;28110;47.080;9.476;2024-03-22T10:49:19;3.55;;;0.98;;
42478;SDS011;28110;47.080;9.476;2024-03-22T10:51:52;5.60;;;1.00;;
42478;SDS011;28110;47.080;9.476;2024-03-22T10:54:23;3.08;;;1.10;;
42478;SDS011;28110;47.080;9.476;2024-03-22T10:56:51;2.20;;;0.98;;
42478;SDS011;28110;47.080;9.476;2024-03-22T10:59:21;4.85;;;1.40;;
42478;SDS011;28110;47.080;9.476;2024-03-22T11:01:47;2.10;;;1.00;;
42478;SDS011;28110;47.080;9.476;2024-03-22T11:04:17;3.95;;;0.85;;
42478;SDS011;28110;47.080;9.476;2024-03-22T11:06:49;4.10;;;1.00;;
42478;SDS011;28110;47.080;9.476;2024-03-22T11:09:22;3.83;;;1.10;;
42478;SDS011;28110;47.080;9.476;2024-03-22T11:11:52;2.95;;;0.98;;
42478;SDS011;28110;47.080;9.476;2024-03-22T11:14:18;6.33;;;1.30;;
42478;SDS011;28110;47.080;9.476;2024-03-22T11:16:49;2.72;;;0.80;;
42478;SDS011;28110;47.080;9.476;2024-03-22T11:19:14;1.58;;;1.10;;
42478;SDS011;28110;47.080;9.476;2024-03-22T11:21:40;2.20;;;1.10;;
42478;SDS011;28110;47.080;9.476;2024-03-22T11:24:06;3.47;;;1.00;;
42478;SDS011;28110;47.080;9.476;2024-03-22T11:26:32;5.20;;;1.20;;
42478;SDS011;28110;47.080;9.476;2024-03-22T11:28:58;1.73;;;0.77;;
42478;SDS011;28110;47.080;9.476;2024-03-22T11:31:24;2.05;;;0.88;;
42478;SDS011;28110;47.080;9.476;2024-03-22T11:33:52;4.10;;;1.00;;
42478;SDS011;28110;47.080;9.476;2024-03-22T11:36:19;3.20;;;0.88;;
42478;SDS011;28110;47.080;9.476;2024-03-22T11:38:45;2.47;;;1.02;;
42478;SDS011;28110;47.080;9.476;2024-03-22T11:41:13;2.33;;;1.10;;
42478;SDS011;28110;47.080;9.476;2024-03-22T11:43:42;1.88;;;0.90;;
42478;SDS011;28110;47.080;9.476;2024-03-22T11:46:09;1.83;;;0.70;;
42478;SDS011;28110;47.080;9.476;2024-03-22T11:48:38;3.40;;;0.88;;
42478;SDS011;28110;47.080;9.476;2024-03-22T11:51:07;4.07;;;1.00;;
42478;SDS011;28110;47.080;9.476;2024-03-22T11:53:34;3.07;;;0.80;;
42478;SDS011;28110;47.080;9.476;2024-03-22T11:56:00;4.95;;;0.93;;
42478;SDS011;28110;47.080;9.476;2024-03-22T11:58:28;1.50;;;1.08;;
42478;SDS011;28110;47.080;9.476;2024-03-22T12:00:54;3.40;;;0.90;;
42478;SDS011;28110;47.080;9.476;2024-03-22T12:03:21;2.97;;;0.97;;
42478;SDS011;28110;47.080;9.476;2024-03-22T12:05:47;6.28;;;1.20;;
42478;SDS011;28110;47.080;9.476;2024-03-22T12:08:15;1.60;;;0.95;;
42478;SDS011;28110;47.080;9.476;2024-03-22T12:10:42;1.27;;;0.80;;
42478;SDS011;28110;47.080;9.476;2024-03-22T12:13:08;2.60;;;1.02;;
42478;SDS011;28110;47.080;9.476;2024-03-22T12:15:34;2.88;;;0.80;;
42478;SDS011;28110;47.080;9.476;2024-03-22T12:17:59;1.40;;;0.90;;
42478;SDS011;28110;47.080;9.476;2024-03-22T12:20:25;1.13;;;0.90;;
42478;SDS011;28110;47.080;9.476;2024-03-22T12:22:52;1.42;;;0.65;;
42478;SDS011;28110;47.080;9.476;2024-03-22T12:25:17;2.80;;;0.90;;
42478;SDS011;28110;47.080;9.476;2024-03-22T12:27:43;1.60;;;0.80;;
42478;SDS011;28110;47.080;9.476;2024-03-22T12:30:09;2.88;;;0.88;;
42478;SDS011;28110;47.080;9.476;2024-03-22T12:32:36;2.73;;;1.17;;
42478;SDS011;28110;47.080;9.476;2024-03-22T12:35:01;2.90;;;1.05;;
42478;SDS011;28110;47.080;9.476;2024-03-22T12:37:27;4.53;;;0.80;;
42478;SDS011;28110;47.080;9.476;2024-03-22T12:39:52;2.03;;;0.80;;
42478;SDS011;28110;47.080;9.476;2024-03-22T12:42:18;2.65;;;0.75;;
42478;SDS011;28110;47.080;9.476;2024-03-22T12:44:45;1.42;;;0.98;;
42478;SDS011;28110;47.080;9.476;2024-03-22T12:47:10;2.30;;;0.80;;
42478;SDS011;28110;47.080;9.476;2024-03-22T12:49:36;1.30;;;0.73;;
42478;SDS011;28110;47.080;9.476;2024-03-22T12:52:01;7.05;;;0.93;;
42478;SDS011;28110;47.080;9.476;2024-03-22T12:54:27;2.03;;;0.90;;
42478;SDS011;28110;47.080;9.476;2024-03-22T12:56:53;3.28;;;0.90;;
42478;SDS011;28110;47.080;9.476;2024-03-22T12:59:19;1.37;;;0.63;;
42478;SDS011;28110;47.080;9.476;2024-03-22T13:01:44;0.90;;;0.70;;
42478;SDS011;28110;47.080;9.476;2024-03-22T13:04:10;2.30;;;0.70;;
42478;SDS011;28110;47.080;9.476;2024-03-22T13:06:36;1.35;;;0.80;;
42478;SDS011;28110;47.080;9.476;2024-03-22T13:09:02;1.13;;;0.83;;
42478;SDS011;28110;47.080;9.476;2024-03-22T13:11:29;2.42;;;1.00;;
42478;SDS011;28110;47.080;9.476;2024-03-22T13:13:56;3.35;;;0.80;;
42478;SDS011;28110;47.080;9.476;2024-03-22T13:16:22;2.10;;;0.90;;
42478;SDS011;28110;47.080;9.476;2024-03-22T13:18:48;1.17;;;0.77;;
42478;SDS011;28110;47.080;9.476;2024-03-22T13:21:13;1.00;;;0.77;;
42478;SDS011;28110;47.080;9.476;2024-03-22T13:23:39;2.40;;;0.90;;
42478;SDS011;28110;47.080;9.476;2024-03-22T13:26:04;2.37;;;1.00;;
42478;SDS011;28110;47.080;9.476;2024-03-22T13:28:31;1.52;;;0.90;;
42478;SDS011;28110;47.080;9.476;2024-03-22T13:31:03;3.37;;;1.00;;
42478;SDS011;28110;47.080;9.476;2024-03-22T13:33:31;2.58;;;0.93;;
42478;SDS011;28110;47.080;9.476;2024-03-22T13:35:58;6.97;;;0.93;;
42478;SDS011;28110;47.080;9.476;2024-03-22T13:38:24;1.60;;;0.70;;
42478;SDS011;28110;47.080;9.476;2024-03-22T13:40:56;1.05;;;0.70;;
42478;SDS011;28110;47.080;9.476;2024-03-22T13:43:23;2.08;;;0.70;;
42478;SDS011;28110;47.080;9.476;2024-03-22T13:45:51;3.67;;;0.80;;
42478;SDS011;28110;47.080;9.476;2024-03-22T13:48:20;2.57;;;0.80;;
42478;SDS011;28110;47.080;9.476;2024-03-22T13:50:50;2.13;;;0.98;;
42478;SDS011;28110;47.080;9.476;2024-03-22T13:53:16;5.45;;;0.90;;
42478;SDS011;28110;47.080;9.476;2024-03-22T13:55:42;1.53;;;0.77;;
42478;SDS011;28110;47.080;9.476;2024-03-22T13:58:08;2.40;;;0.80;;
42478;SDS011;28110;47.080;9.476;2024-03-22T14:00:33;2.57;;;0.93;;
42478;SDS011;28110;47.080;9.476;2024-03-22T14:03:00;4.22;;;0.98;;
42478;SDS011;28110;47.080;9.476;2024-03-22T14:05:26;2.20;;;0.80;;
42478;SDS011;28110;47.080;9.476;2024-03-22T14:07:52;2.13;;;0.90;;
42478;SDS011;28110;47.080;9.476;2024-03-22T14:10:17;2.63;;;0.90;;
42478;SDS011;28110;47.080;9.476;2024-03-22T14:12:45;1.02;;;0.75;;
42478;SDS011;28110;47.080;9.476;2024-03-22T14:15:11;2.83;;;0.70;;
42478;SDS011;28110;47.080;9.476;2024-03-22T14:17:37;1.73;;;1.20;;
42478;SDS011;28110;47.080;9.476;2024-03-22T14:20:03;2.75;;;0.80;;
42478;SDS011;28110;47.080;9.476;2024-03-22T14:22:35;1.77;;;0.90;;
42478;SDS011;28110;47.080;9.476;2024-03-22T14:25:00;1.05;;;0.73;;
42478;SDS011;28110;47.080;9.476;2024-03-22T14:27:27;1.00;;;0.90;;
42478;SDS011;28110;47.080;9.476;2024-03-22T14:29:53;1.37;;;0.87;;
42478;SDS011;28110;47.080;9.476;2024-03-22T14:32:18;8.97;;;1.20;;
42478;SDS011;28110;47.080;9.476;2024-03-22T14:34:44;3.67;;;1.00;;
42478;SDS011;28110;47.080;9.476;2024-03-22T14:37:10;2.95;;;0.80;;
42478;SDS011;28110;47.080;9.476;2024-03-22T14:39:37;1.27;;;0.95;;
42478;SDS011;28110;47.080;9.476;2024-03-22T14:42:03;1.30;;;0.90;;